Time;durP1;ratioP1;P1;durP2;ratioP2;P2;SDS_P1;SDS_P2;PMS_P1;PMS_P2;Temp;Humidity;BMP_temperature;BMP_pressure;BME280_temperature;BME280_humidity;BME280_pressure;Samples;Min_cycle;Max_cycle;Signal;HPM_P1;HPM_P2
2021/09/22 00:00:30;;;;;;;16.30;14.02;;;;;;;;;;2090038;28;20700;-64
2021/09/22 00:01:30;;;;;;;15.43;13.82;;;;;;;;;;2089558;28;20673;-64
2021/09/22 00:02:31;;;;;;;16.23;14.48;;;;;;;;;;2090725;28;20171;-65
2021/09/22 00:03:31;;;;;;;15.85;14.07;;;;;;;;;;2090209;28;20171;-63
2021/09/22 00:04:31;;;;;;;16.27;14.32;;;;;;;;;;2096794;28;20166;-61
2021/09/22 00:05:32;;;;;;;16.08;14.38;;;;;;;;;;2097608;28;20194;-63
2021/09/22 00:06:32;;;;;;;19.92;14.48;;;;;;;;;;2089453;28;20192;-64
2021/09/22 00:07:32;;;;;;;17.00;15.02;;;;;;;;;;2090973;28;20184;-65
2021/09/22 00:08:32;;;;;;;16.42;14.45;;;;;;;;;;2095849;28;20170;-68
2021/09/22 00:09:33;;;;;;;20.10;14.65;;;;;;;;;;2088871;28;20268;-64
2021/09/22 00:10:33;;;;;;;16.88;14.25;;;;;;;;;;2085506;28;20191;-63
2021/09/22 00:11:33;;;;;;;17.83;14.65;;;;;;;;;;2106708;28;20163;-64
2021/09/22 00:12:33;;;;;;;18.08;14.70;;;;;;;;;;2095389;28;20172;-63
2021/09/22 00:13:34;;;;;;;17.50;15.15;;;;;;;;;;2105475;28;20202;-63
2021/09/22 00:14:34;;;;;;;17.35;14.77;;;;;;;;;;2096268;28;20178;-63
2021/09/22 00:15:34;;;;;;;18.63;15.73;;;;;;;;;;2106162;28;20206;-64
2021/09/22 00:16:34;;;;;;;16.92;15.13;;;;;;;;;;2098332;28;20260;-63
2021/09/22 00:17:35;;;;;;;17.88;15.82;;;;;;;;;;2085516;28;20183;-65
2021/09/22 00:18:35;;;;;;;19.58;15.10;;;;;;;;;;2083837;28;20297;-62
2021/09/22 00:19:35;;;;;;;16.67;14.77;;;;;;;;;;2099217;28;20188;-63
2021/09/22 00:20:36;;;;;;;20.50;15.50;;;;;;;;;;2090712;28;20164;-64
2021/09/22 00:21:36;;;;;;;20.30;16.17;;;;;;;;;;2090746;28;20180;-63
2021/09/22 00:22:36;;;;;;;20.38;15.48;;;;;;;;;;2092672;28;20243;-64
2021/09/22 00:23:37;;;;;;;18.67;15.82;;;;;;;;;;2082202;28;20255;-63
2021/09/22 00:24:37;;;;;;;18.02;15.18;;;;;;;;;;2091670;28;20200;-62
2021/09/22 00:25:37;;;;;;;19.58;15.90;;;;;;;;;;2106509;28;20198;-65
2021/09/22 00:26:38;;;;;;;19.80;15.70;;;;;;;;;;2094255;28;20709;-63
2021/09/22 00:27:38;;;;;;;19.98;16.58;;;;;;;;;;2087550;28;20177;-64
2021/09/22 00:28:38;;;;;;;19.50;16.05;;;;;;;;;;2081646;28;20519;-60
2021/09/22 00:29:38;;;;;;;19.85;15.40;;;;;;;;;;2087774;28;20232;-62
2021/09/22 00:30:39;;;;;;;17.33;15.45;;;;;;;;;;2089941;28;20175;-62
2021/09/22 00:31:41;;;;;;;17.10;14.45;;;;;;;;;;2091863;28;20178;-62
2021/09/22 00:32:41;;;;;;;19.33;15.48;;;;;;;;;;2093471;28;20257;-62
2021/09/22 00:33:42;;;;;;;17.65;15.18;;;;;;;;;;2084743;28;20187;-64
2021/09/22 00:34:42;;;;;;;17.52;14.60;;;;;;;;;;2088392;28;20176;-66
2021/09/22 00:35:42;;;;;;;20.02;16.05;;;;;;;;;;2091343;28;20203;-64
2021/09/22 00:36:43;;;;;;;18.45;16.38;;;;;;;;;;2104457;28;20316;-64
2021/09/22 00:37:44;;;;;;;20.38;17.40;;;;;;;;;;2097985;28;20179;-64
2021/09/22 00:38:44;;;;;;;24.77;18.15;;;;;;;;;;2094217;28;20238;-64
2021/09/22 00:39:44;;;;;;;21.52;16.88;;;;;;;;;;2090481;28;20172;-61
2021/09/22 00:40:46;;;;;;;24.48;19.10;;;;;;;;;;2095145;28;20644;-63
2021/09/22 00:41:46;;;;;;;20.63;18.48;;;;;;;;;;2082826;28;20176;-64
2021/09/22 00:42:46;;;;;;;22.60;18.77;;;;;;;;;;2096880;28;20265;-65
2021/09/22 00:43:47;;;;;;;24.17;18.63;;;;;;;;;;2094236;28;20175;-65
2021/09/22 00:44:48;;;;;;;26.52;19.95;;;;;;;;;;2085646;28;20176;-66
2021/09/22 00:45:49;;;;;;;22.27;18.15;;;;;;;;;;2097121;28;20244;-65
2021/09/22 00:46:49;;;;;;;23.10;19.65;;;;;;;;;;2089822;28;20207;-64
2021/09/22 00:47:49;;;;;;;25.02;19.73;;;;;;;;;;2089787;28;20188;-64
2021/09/22 00:48:56;;;;;;;22.27;17.42;;;;;;;;;;2084052;28;20257;-64
2021/09/22 00:49:58;;;;;;;22.15;17.52;;;;;;;;;;2085509;28;20167;-64
2021/09/22 00:50:59;;;;;;;23.30;18.20;;;;;;;;;;2092187;28;20217;-64
2021/09/22 00:52:00;;;;;;;19.17;16.55;;;;;;;;;;2087832;28;20250;-64
2021/09/22 00:53:00;;;;;;;21.75;17.38;;;;;;;;;;2088341;28;20568;-64
2021/09/22 00:54:00;;;;;;;21.48;17.40;;;;;;;;;;2080859;28;20838;-64
2021/09/22 00:55:00;;;;;;;24.52;18.67;;;;;;;;;;2089114;28;20218;-64
2021/09/22 00:56:03;;;;;;;23.25;19.15;;;;;;;;;;2080836;28;20267;-61
2021/09/22 00:57:04;;;;;;;24.52;18.48;;;;;;;;;;2077901;28;20192;-63
2021/09/22 00:58:07;;;;;;;24.88;18.83;;;;;;;;;;2075935;28;20204;-64
2021/09/22 00:59:08;;;;;;;26.83;21.58;;;;;;;;;;2084764;28;20187;-64
2021/09/22 01:00:08;;;;;;;26.10;20.80;;;;;;;;;;2085390;28;20633;-64
2021/09/22 01:01:09;;;;;;;26.40;20.67;;;;;;;;;;2075919;28;20719;-64
2021/09/22 01:02:09;;;;;;;24.73;20.15;;;;;;;;;;2085141;28;20218;-64
2021/09/22 01:03:09;;;;;;;26.95;21.00;;;;;;;;;;2083887;28;20171;-63
2021/09/22 01:04:09;;;;;;;30.05;21.75;;;;;;;;;;2077006;28;20184;-64
2021/09/22 01:05:10;;;;;;;27.35;22.13;;;;;;;;;;2080557;28;20172;-65
2021/09/22 01:06:13;;;;;;;31.38;21.92;;;;;;;;;;2085994;28;20219;-64
2021/09/22 01:07:14;;;;;;;25.67;21.27;;;;;;;;;;2089853;28;20594;-65
2021/09/22 01:08:14;;;;;;;28.33;22.75;;;;;;;;;;2080205;28;20191;-65
2021/09/22 01:09:15;;;;;;;34.45;24.48;;;;;;;;;;2074639;28;20673;-64
2021/09/22 01:10:16;;;;;;;27.50;22.08;;;;;;;;;;2088966;28;20191;-63
2021/09/22 01:11:17;;;;;;;30.58;23.25;;;;;;;;;;2096224;28;20922;-64
2021/09/22 01:12:17;;;;;;;28.27;22.55;;;;;;;;;;2089868;28;20175;-64
2021/09/22 01:13:17;;;;;;;29.58;22.92;;;;;;;;;;2086623;28;20182;-62
2021/09/22 01:14:24;;;;;;;29.60;23.13;;;;;;;;;;2086447;28;20202;-64
2021/09/22 01:15:26;;;;;;;30.38;23.17;;;;;;;;;;2082914;28;20196;-65
2021/09/22 01:16:26;;;;;;;28.58;21.92;;;;;;;;;;2095147;28;20706;-64
2021/09/22 01:17:27;;;;;;;29.55;22.02;;;;;;;;;;2088736;28;20186;-60
2021/09/22 01:18:27;;;;;;;29.05;22.95;;;;;;;;;;2086864;28;20175;-63
2021/09/22 01:19:27;;;;;;;31.10;23.15;;;;;;;;;;2101514;28;20174;-63
2021/09/22 01:20:30;;;;;;;32.95;21.95;;;;;;;;;;2102807;28;20171;-63
2021/09/22 01:21:31;;;;;;;30.27;23.38;;;;;;;;;;2084995;28;20191;-64
2021/09/22 01:22:33;;;;;;;27.05;20.55;;;;;;;;;;2096431;28;20638;-65
2021/09/22 01:23:36;;;;;;;27.75;21.00;;;;;;;;;;2095809;28;20177;-59
2021/09/22 01:24:41;;;;;;;31.67;23.58;;;;;;;;;;2088099;28;20172;-64
2021/09/22 01:25:43;;;;;;;29.27;23.33;;;;;;;;;;2086988;28;20195;-65
2021/09/22 01:26:45;;;;;;;31.52;23.48;;;;;;;;;;2082271;28;20176;-63
2021/09/22 01:27:47;;;;;;;30.80;23.42;;;;;;;;;;2094161;28;20239;-61
2021/09/22 01:28:48;;;;;;;31.27;24.05;;;;;;;;;;2075220;28;20172;-64
2021/09/22 01:29:53;;;;;;;38.53;26.00;;;;;;;;;;2081480;28;20655;-64
2021/09/22 01:31:00;;;;;;;39.15;26.15;;;;;;;;;;2082581;28;20179;-64
2021/09/22 01:32:03;;;;;;;36.33;26.92;;;;;;;;;;2092749;28;21187;-64
2021/09/22 01:33:05;;;;;;;37.60;26.38;;;;;;;;;;2092846;28;20265;-65
2021/09/22 01:34:14;;;;;;;37.75;26.00;;;;;;;;;;2083553;28;20641;-64
2021/09/22 01:35:36;;;;;;;37.90;27.98;;;;;;;;;;2086644;28;20245;-63
2021/09/22 01:36:47;;;;;;;35.65;24.58;;;;;;;;;;2094308;28;20194;-56
2021/09/22 01:37:47;;;;;;;35.08;25.60;;;;;;;;;;2077932;28;20208;-64
2021/09/22 01:39:10;;;;;;;34.88;24.83;;;;;;;;;;2089833;28;20174;-65
2021/09/22 01:40:15;;;;;;;35.15;26.52;;;;;;;;;;2093994;28;20845;-61
2021/09/22 01:41:16;;;;;;;33.90;25.70;;;;;;;;;;2079607;28;20583;-65
2021/09/22 01:42:25;;;;;;;35.25;26.35;;;;;;;;;;2089460;28;20179;-64
2021/09/22 01:43:30;;;;;;;35.53;26.25;;;;;;;;;;2087998;28;20163;-64
2021/09/22 01:44:32;;;;;;;39.97;27.48;;;;;;;;;;2072513;28;20172;-65
2021/09/22 01:45:42;;;;;;;37.58;26.63;;;;;;;;;;2076109;28;20192;-65
2021/09/22 01:46:42;;;;;;;36.97;27.70;;;;;;;;;;2087157;28;20171;-65
2021/09/22 01:47:43;;;;;;;37.03;27.50;;;;;;;;;;2081583;28;20184;-64
2021/09/22 01:48:44;;;;;;;38.60;27.40;;;;;;;;;;2089336;28;20659;-64
2021/09/22 01:49:44;;;;;;;40.75;28.60;;;;;;;;;;2090415;28;20266;-64
2021/09/22 01:50:47;;;;;;;39.83;28.17;;;;;;;;;;2076455;28;20213;-64
2021/09/22 01:51:47;;;;;;;41.30;27.98;;;;;;;;;;2082041;28;20184;-65
2021/09/22 01:52:49;;;;;;;41.67;28.48;;;;;;;;;;2080323;28;20241;-65
2021/09/22 01:53:51;;;;;;;37.67;26.85;;;;;;;;;;2082968;28;20175;-65
2021/09/22 01:54:51;;;;;;;36.25;27.20;;;;;;;;;;2093575;28;20176;-65
2021/09/22 01:55:53;;;;;;;35.53;27.33;;;;;;;;;;2088035;28;20204;-65
2021/09/22 01:56:55;;;;;;;36.97;26.75;;;;;;;;;;2076472;28;20177;-64
2021/09/22 01:57:57;;;;;;;37.63;24.55;;;;;;;;;;2075166;28;20263;-63
2021/09/22 01:59:22;;;;;;;31.30;24.65;;;;;;;;;;2089294;28;20256;-65
2021/09/22 02:00:48;;;;;;;33.00;24.33;;;;;;;;;;2088506;28;20219;-61
2021/09/22 02:01:58;;;;;;;33.63;24.38;;;;;;;;;;2094532;28;20576;-61
2021/09/22 02:03:27;;;;;;;36.45;23.98;;;;;;;;;;2069270;28;20620;-63
2021/09/22 02:04:35;;;;;;;31.73;23.77;;;;;;;;;;2084030;28;20172;-62
2021/09/22 02:05:40;;;;;;;33.92;25.50;;;;;;;;;;2084525;28;20203;-62
2021/09/22 02:06:52;;;;;;;36.15;26.75;;;;;;;;;;2079456;28;20754;-61
2021/09/22 02:07:52;;;;;;;38.40;26.17;;;;;;;;;;2086446;28;20243;-62
2021/09/22 02:08:57;;;;;;;39.92;28.75;;;;;;;;;;2091380;28;20713;-68
2021/09/22 02:10:06;;;;;;;36.42;26.50;;;;;;;;;;2082388;28;20176;-63
2021/09/22 02:11:06;;;;;;;38.30;26.33;;;;;;;;;;2085275;28;20172;-63
2021/09/22 02:12:08;;;;;;;38.67;27.08;;;;;;;;;;2082320;28;20692;-60
2021/09/22 02:13:09;;;;;;;37.60;27.25;;;;;;;;;;2079488;28;20207;-63
2021/09/22 02:14:12;;;;;;;34.25;25.48;;;;;;;;;;2086868;28;20195;-64
2021/09/22 02:15:20;;;;;;;33.90;25.05;;;;;;;;;;2087105;28;20187;-65
2021/09/22 02:16:53;;;;;;;33.35;25.08;;;;;;;;;;2089994;28;20554;-65
2021/09/22 02:17:59;;;;;;;40.83;28.40;;;;;;;;;;2100063;28;20182;-63
2021/09/22 02:19:00;;;;;;;39.83;28.55;;;;;;;;;;2092298;28;20346;-64
2021/09/22 02:20:02;;;;;;;40.25;28.63;;;;;;;;;;2082405;28;20262;-64
2021/09/22 02:21:12;;;;;;;36.97;26.83;;;;;;;;;;2083274;28;20827;-65
2021/09/22 02:22:13;;;;;;;38.15;27.38;;;;;;;;;;2082895;28;20175;-64
2021/09/22 02:23:27;;;;;;;38.30;28.40;;;;;;;;;;2088682;28;20270;-65
2021/09/22 02:24:31;;;;;;;41.65;29.15;;;;;;;;;;2072939;28;20649;-64
2021/09/22 02:25:32;;;;;;;37.38;26.55;;;;;;;;;;2087572;28;20250;-64
2021/09/22 02:26:33;;;;;;;35.58;26.27;;;;;;;;;;2087666;28;20175;-64
2021/09/22 02:27:34;;;;;;;40.47;27.05;;;;;;;;;;2088640;28;20582;-64
2021/09/22 02:28:37;;;;;;;38.10;27.38;;;;;;;;;;2087928;28;20176;-64
2021/09/22 02:29:38;;;;;;;37.33;27.73;;;;;;;;;;2086842;28;20240;-64
2021/09/22 02:30:39;;;;;;;37.50;28.00;;;;;;;;;;2079740;28;20703;-66
2021/09/22 02:31:40;;;;;;;39.85;29.20;;;;;;;;;;2081315;28;20223;-65
2021/09/22 02:32:41;;;;;;;38.08;28.00;;;;;;;;;;2078906;28;20246;-64
2021/09/22 02:33:42;;;;;;;38.78;28.58;;;;;;;;;;2082189;28;20265;-65
2021/09/22 02:34:42;;;;;;;37.53;27.38;;;;;;;;;;2082246;28;20656;-65
2021/09/22 02:35:42;;;;;;;37.38;26.08;;;;;;;;;;2091634;28;20651;-65
2021/09/22 02:36:49;;;;;;;37.65;27.65;;;;;;;;;;2088481;28;20286;-65
2021/09/22 02:37:49;;;;;;;38.17;27.75;;;;;;;;;;2083752;28;20279;-64
2021/09/22 02:39:10;;;;;;;39.72;28.02;;;;;;;;;;2086886;28;20207;-65
2021/09/22 02:40:16;;;;;;;40.58;28.90;;;;;;;;;;2091307;28;20221;-65
2021/09/22 02:41:17;;;;;;;38.78;28.02;;;;;;;;;;2082730;28;20256;-64
2021/09/22 02:42:17;;;;;;;40.58;29.30;;;;;;;;;;2095865;28;20182;-63
2021/09/22 02:43:17;;;;;;;41.25;29.33;;;;;;;;;;2091014;28;20171;-64
2021/09/22 02:44:17;;;;;;;40.03;28.95;;;;;;;;;;2079196;28;20641;-65
2021/09/22 02:45:22;;;;;;;42.00;30.35;;;;;;;;;;2083042;28;20199;-66
2021/09/22 02:46:22;;;;;;;44.45;29.83;;;;;;;;;;2096988;28;20293;-66
2021/09/22 02:47:34;;;;;;;42.50;29.75;;;;;;;;;;2076069;28;20649;-63
2021/09/22 02:48:34;;;;;;;41.88;29.45;;;;;;;;;;2080272;28;20184;-65
2021/09/22 02:49:37;;;;;;;44.60;30.58;;;;;;;;;;2081425;28;20672;-63
2021/09/22 02:50:42;;;;;;;44.08;30.80;;;;;;;;;;2088283;28;20267;-63
2021/09/22 02:51:45;;;;;;;43.03;30.52;;;;;;;;;;2089526;28;20600;-64
2021/09/22 02:52:46;;;;;;;44.30;30.10;;;;;;;;;;2090192;28;20180;-63
2021/09/22 02:53:47;;;;;;;42.33;31.02;;;;;;;;;;2085670;28;20188;-63
2021/09/22 02:54:48;;;;;;;42.50;30.15;;;;;;;;;;2086862;28;20553;-63
2021/09/22 02:55:54;;;;;;;46.92;29.77;;;;;;;;;;2086247;28;20219;-64
2021/09/22 02:56:56;;;;;;;42.25;29.58;;;;;;;;;;2098850;28;20194;-64
2021/09/22 02:57:56;;;;;;;41.00;29.45;;;;;;;;;;2085361;28;20926;-64
2021/09/22 02:58:57;;;;;;;42.55;30.10;;;;;;;;;;2083766;28;20172;-64
2021/09/22 02:59:59;;;;;;;42.03;30.08;;;;;;;;;;2087241;28;20180;-63
2021/09/22 03:00:59;;;;;;;41.22;29.95;;;;;;;;;;2078765;28;20169;-65
2021/09/22 03:01:59;;;;;;;39.25;29.77;;;;;;;;;;2090893;28;20168;-65
2021/09/22 03:03:00;;;;;;;43.40;30.23;;;;;;;;;;2083128;28;20184;-64
2021/09/22 03:04:00;;;;;;;41.45;30.98;;;;;;;;;;2090393;28;20163;-64
2021/09/22 03:05:01;;;;;;;45.85;30.83;;;;;;;;;;2093834;28;20172;-64
2021/09/22 03:06:01;;;;;;;45.78;30.52;;;;;;;;;;2083512;28;20176;-64
2021/09/22 03:07:02;;;;;;;44.83;30.35;;;;;;;;;;2082111;28;20207;-64
2021/09/22 03:08:02;;;;;;;45.35;31.75;;;;;;;;;;2090248;28;20223;-64
2021/09/22 03:09:04;;;;;;;42.92;29.60;;;;;;;;;;2095945;28;20163;-64
2021/09/22 03:10:04;;;;;;;43.20;30.20;;;;;;;;;;2095349;28;20186;-65
2021/09/22 03:11:08;;;;;;;46.30;31.52;;;;;;;;;;2088406;28;20259;-62
2021/09/22 03:12:10;;;;;;;44.40;30.85;;;;;;;;;;2079005;28;20680;-62
2021/09/22 03:13:10;;;;;;;44.75;31.83;;;;;;;;;;2087223;28;20248;-61
2021/09/22 03:14:10;;;;;;;42.22;30.58;;;;;;;;;;2088105;28;20175;-64
2021/09/22 03:15:17;;;;;;;52.88;33.60;;;;;;;;;;2084563;28;20180;-63
2021/09/22 03:16:18;;;;;;;44.72;31.73;;;;;;;;;;2087665;28;20215;-64
2021/09/22 03:17:18;;;;;;;46.20;31.98;;;;;;;;;;2085292;28;20180;-64
2021/09/22 03:18:19;;;;;;;48.15;32.38;;;;;;;;;;2083591;28;20259;-64
2021/09/22 03:19:19;;;;;;;45.08;32.58;;;;;;;;;;2089377;28;20293;-63
2021/09/22 03:20:19;;;;;;;48.05;31.45;;;;;;;;;;2089401;28;20175;-61
2021/09/22 03:21:19;;;;;;;49.90;32.65;;;;;;;;;;2096065;28;20243;-64
2021/09/22 03:22:21;;;;;;;45.33;32.70;;;;;;;;;;2087585;28;20171;-62
2021/09/22 03:23:56;;;;;;;43.50;31.50;;;;;;;;;;2082441;28;20154;-61
2021/09/22 03:24:57;;;;;;;42.25;30.13;;;;;;;;;;2086229;28;20179;-64
2021/09/22 03:25:57;;;;;;;40.45;29.35;;;;;;;;;;2095207;22;20997;-66
2021/09/22 03:26:58;;;;;;;49.60;31.27;;;;;;;;;;2071081;28;20581;-67
2021/09/22 03:27:58;;;;;;;42.22;31.70;;;;;;;;;;2069725;28;20261;-64
2021/09/22 03:28:59;;;;;;;44.38;31.13;;;;;;;;;;2071780;28;20214;-66
2021/09/22 03:30:00;;;;;;;42.35;31.17;;;;;;;;;;2079868;28;20187;-67
2021/09/22 03:31:01;;;;;;;45.55;32.83;;;;;;;;;;2082773;28;20171;-67
2021/09/22 03:32:04;;;;;;;47.45;32.72;;;;;;;;;;2078488;28;20247;-66
2021/09/22 03:33:05;;;;;;;43.45;31.83;;;;;;;;;;2074194;28;20173;-65
2021/09/22 03:34:05;;;;;;;50.15;34.03;;;;;;;;;;2085381;28;20171;-68
2021/09/22 03:35:05;;;;;;;46.13;31.75;;;;;;;;;;2091720;28;20585;-66
2021/09/22 03:36:06;;;;;;;48.10;31.85;;;;;;;;;;2082603;28;20195;-67
2021/09/22 03:37:06;;;;;;;43.50;32.22;;;;;;;;;;2080907;28;20164;-67
2021/09/22 03:38:07;;;;;;;45.35;32.88;;;;;;;;;;2083845;28;20169;-66
2021/09/22 03:39:07;;;;;;;47.20;33.30;;;;;;;;;;2084295;28;20269;-66
2021/09/22 03:40:08;;;;;;;44.67;31.58;;;;;;;;;;2073882;28;20240;-66
2021/09/22 03:41:09;;;;;;;47.83;33.47;;;;;;;;;;2082839;28;20191;-67
2021/09/22 03:42:09;;;;;;;47.38;33.88;;;;;;;;;;2084008;28;20639;-66
2021/09/22 03:43:09;;;;;;;45.50;31.27;;;;;;;;;;2074590;28;20184;-66
2021/09/22 03:44:10;;;;;;;49.40;33.80;;;;;;;;;;2072203;28;20190;-66
2021/09/22 03:45:13;;;;;;;50.13;33.97;;;;;;;;;;2078982;28;20214;-67
2021/09/22 03:46:14;;;;;;;53.88;32.72;;;;;;;;;;2081326;28;20668;-67
2021/09/22 03:47:14;;;;;;;46.08;32.00;;;;;;;;;;2081228;28;20600;-66
2021/09/22 03:48:14;;;;;;;43.05;32.95;;;;;;;;;;2081161;28;20165;-67
2021/09/22 03:49:15;;;;;;;47.88;33.05;;;;;;;;;;2086536;28;20631;-68
2021/09/22 03:50:15;;;;;;;50.88;34.20;;;;;;;;;;2074932;28;20570;-65
2021/09/22 03:51:34;;;;;;;47.55;32.60;;;;;;;;;;2074926;28;20173;-67
2021/09/22 03:52:34;;;;;;;48.53;32.00;;;;;;;;;;2072773;28;20177;-66
2021/09/22 03:53:35;;;;;;;49.53;33.78;;;;;;;;;;2069191;28;20260;-66
2021/09/22 03:54:35;;;;;;;47.55;32.83;;;;;;;;;;2073806;28;20188;-66
2021/09/22 03:55:35;;;;;;;50.67;34.72;;;;;;;;;;2081047;28;20246;-66
2021/09/22 03:56:36;;;;;;;48.97;33.03;;;;;;;;;;2080826;28;20207;-68
2021/09/22 03:57:36;;;;;;;52.75;34.25;;;;;;;;;;2087424;28;20643;-66
2021/09/22 03:58:36;;;;;;;51.97;34.92;;;;;;;;;;2073078;28;20166;-66
2021/09/22 03:59:39;;;;;;;53.50;35.30;;;;;;;;;;2088330;28;20175;-66
2021/09/22 04:00:40;;;;;;;62.38;37.25;;;;;;;;;;2073378;28;20189;-67
2021/09/22 04:01:40;;;;;;;52.92;34.80;;;;;;;;;;2073428;28;20196;-67
2021/09/22 04:02:40;;;;;;;53.38;34.35;;;;;;;;;;2076709;28;20232;-67
2021/09/22 04:03:41;;;;;;;53.50;36.10;;;;;;;;;;2079165;28;20247;-67
2021/09/22 04:04:41;;;;;;;51.28;35.13;;;;;;;;;;2072472;28;20541;-67
2021/09/22 04:05:41;;;;;;;53.55;36.67;;;;;;;;;;2075785;28;20684;-67
2021/09/22 04:06:42;;;;;;;54.15;35.78;;;;;;;;;;2074856;28;20181;-68
2021/09/22 04:07:43;;;;;;;53.20;35.83;;;;;;;;;;2075070;28;20181;-66
2021/09/22 04:08:44;;;;;;;54.42;35.10;;;;;;;;;;2076115;28;20619;-66
2021/09/22 04:09:44;;;;;;;51.72;36.22;;;;;;;;;;2075863;28;20323;-67
2021/09/22 04:10:44;;;;;;;51.22;35.42;;;;;;;;;;2076754;28;20180;-67
2021/09/22 04:11:44;;;;;;;55.45;36.38;;;;;;;;;;2080189;28;20629;-66
2021/09/22 04:12:45;;;;;;;51.47;35.17;;;;;;;;;;2080258;28;20243;-67
2021/09/22 04:13:45;;;;;;;48.33;33.60;;;;;;;;;;2084265;28;20249;-66
2021/09/22 04:14:45;;;;;;;48.28;33.75;;;;;;;;;;2091489;28;20247;-66
2021/09/22 04:15:46;;;;;;;49.67;32.60;;;;;;;;;;2087192;28;20279;-66
2021/09/22 04:16:47;;;;;;;47.65;33.30;;;;;;;;;;2084857;28;20676;-66
2021/09/22 04:17:48;;;;;;;45.03;33.22;;;;;;;;;;2078444;28;20185;-65
2021/09/22 04:18:48;;;;;;;46.60;32.85;;;;;;;;;;2084099;28;20668;-67
2021/09/22 04:19:49;;;;;;;46.85;32.47;;;;;;;;;;2085845;28;20203;-68
2021/09/22 04:20:50;;;;;;;51.30;33.67;;;;;;;;;;2077135;28;20630;-66
2021/09/22 04:21:50;;;;;;;43.80;30.80;;;;;;;;;;2075345;28;20219;-65
2021/09/22 04:22:51;;;;;;;43.42;32.05;;;;;;;;;;2079732;28;20259;-67
2021/09/22 04:23:51;;;;;;;47.30;32.70;;;;;;;;;;2080668;28;20164;-65
2021/09/22 04:24:51;;;;;;;46.00;32.03;;;;;;;;;;2069590;28;20211;-66
2021/09/22 04:25:52;;;;;;;45.15;30.90;;;;;;;;;;2076774;28;20673;-65
2021/09/22 04:26:52;;;;;;;41.47;30.98;;;;;;;;;;2073861;28;20242;-67
2021/09/22 04:28:01;;;;;;;44.58;32.58;;;;;;;;;;2076542;28;20204;-66
2021/09/22 04:29:20;;;;;;;45.25;30.60;;;;;;;;;;2090114;28;20179;-67
2021/09/22 04:30:39;;;;;;;40.92;29.25;;;;;;;;;;2095834;28;20159;-66
2021/09/22 04:32:18;;;;;;;42.33;28.48;;;;;;;;;;2063852;28;20185;-65
2021/09/22 04:33:37;;;;;;;44.75;29.83;;;;;;;;;;2060177;28;20615;-67
2021/09/22 04:34:56;;;;;;;43.63;30.20;;;;;;;;;;2063943;28;20193;-66
2021/09/22 04:36:15;;;;;;;42.88;33.33;;;;;;;;;;2062416;28;20209;-66
2021/09/22 04:37:40;;;;;;;46.53;31.67;;;;;;;;;;2063175;28;20670;-66
2021/09/22 04:38:58;;;;;;;47.20;31.35;;;;;;;;;;2090527;28;20163;-66
2021/09/22 04:40:34;;;;;;;43.80;30.88;;;;;;;;;;2064666;28;20662;-66
2021/09/22 04:41:53;;;;;;;40.38;29.42;;;;;;;;;;2070054;28;20192;-66
2021/09/22 04:43:12;;;;;;;40.47;29.83;;;;;;;;;;2084040;28;20648;-67
2021/09/22 04:44:31;;;;;;;41.60;30.67;;;;;;;;;;2081158;28;20172;-67
2021/09/22 04:45:50;;;;;;;39.38;29.33;;;;;;;;;;2097511;28;20203;-67
2021/09/22 04:47:10;;;;;;;40.97;29.88;;;;;;;;;;2087597;28;20187;-67
2021/09/22 04:48:29;;;;;;;36.58;28.25;;;;;;;;;;2097522;28;20178;-67
2021/09/22 04:49:48;;;;;;;38.63;29.08;;;;;;;;;;2079080;28;20180;-67
2021/09/22 04:51:26;;;;;;;42.78;29.15;;;;;;;;;;2060796;28;20197;-67
2021/09/22 04:52:45;;;;;;;39.50;29.67;;;;;;;;;;2055260;28;20206;-67
2021/09/22 04:54:04;;;;;;;44.25;30.45;;;;;;;;;;2057766;28;20193;-66
2021/09/22 04:55:23;;;;;;;38.60;30.08;;;;;;;;;;2055212;28;20197;-66
2021/09/22 04:56:42;;;;;;;40.53;29.08;;;;;;;;;;2059257;28;20198;-67
2021/09/22 04:58:00;;;;;;;40.40;30.35;;;;;;;;;;2094340;28;20171;-67
2021/09/22 04:59:33;;;;;;;45.10;31.52;;;;;;;;;;2065814;28;20185;-67
2021/09/22 05:01:02;;;;;;;43.05;30.63;;;;;;;;;;2081263;28;20258;-67
2021/09/22 05:02:21;;;;;;;51.97;32.92;;;;;;;;;;2092418;28;20179;-66
2021/09/22 05:03:40;;;;;;;47.25;32.65;;;;;;;;;;2089426;28;20159;-67
2021/09/22 05:04:59;;;;;;;45.08;31.65;;;;;;;;;;2091395;28;20187;-67
2021/09/22 05:06:17;;;;;;;47.08;33.33;;;;;;;;;;2089319;28;20187;-65
2021/09/22 05:07:36;;;;;;;47.28;32.22;;;;;;;;;;2086631;28;20191;-68
2021/09/22 05:08:55;;;;;;;42.17;31.02;;;;;;;;;;2089725;28;20171;-68
2021/09/22 05:10:14;;;;;;;41.17;29.30;;;;;;;;;;2089825;28;20175;-66
2021/09/22 05:11:33;;;;;;;45.45;29.50;;;;;;;;;;2086316;28;20167;-67
2021/09/22 05:12:52;;;;;;;41.95;31.30;;;;;;;;;;2081703;28;20671;-68
2021/09/22 05:14:11;;;;;;;42.58;29.27;;;;;;;;;;2085915;28;20191;-67
2021/09/22 05:15:30;;;;;;;42.78;28.83;;;;;;;;;;2095134;28;20171;-66
2021/09/22 05:16:49;;;;;;;40.42;29.85;;;;;;;;;;2091409;28;20191;-65
2021/09/22 05:18:22;;;;;;;41.03;28.10;;;;;;;;;;2068077;28;20548;-67
2021/09/22 05:19:40;;;;;;;40.33;29.50;;;;;;;;;;2085650;28;20184;-66
2021/09/22 05:20:59;;;;;;;46.45;30.27;;;;;;;;;;2089230;28;20186;-67
2021/09/22 05:22:18;;;;;;;38.83;28.65;;;;;;;;;;2089601;28;20175;-67
2021/09/22 05:23:37;;;;;;;38.92;29.85;;;;;;;;;;2083426;28;20152;-68
2021/09/22 05:24:56;;;;;;;42.45;30.58;;;;;;;;;;2090036;28;20194;-68
2021/09/22 05:26:15;;;;;;;38.83;29.80;;;;;;;;;;2090191;28;20747;-68
2021/09/22 05:27:34;;;;;;;43.13;28.30;;;;;;;;;;2082548;28;20648;-69
2021/09/22 05:28:53;;;;;;;45.00;32.75;;;;;;;;;;2082015;28;20180;-67
2021/09/22 05:30:12;;;;;;;42.63;30.92;;;;;;;;;;2085072;28;20147;-67
2021/09/22 05:31:31;;;;;;;54.08;35.58;;;;;;;;;;2081476;28;20200;-66
2021/09/22 05:32:50;;;;;;;44.38;30.92;;;;;;;;;;2095931;28;20276;-67
2021/09/22 05:34:10;;;;;;;45.25;31.67;;;;;;;;;;2088116;28;20151;-67
2021/09/22 05:35:29;;;;;;;44.90;31.35;;;;;;;;;;2085771;28;20594;-66
2021/09/22 05:36:48;;;;;;;43.10;30.08;;;;;;;;;;2086034;28;20664;-67
2021/09/22 05:38:06;;;;;;;43.88;31.30;;;;;;;;;;2090316;28;20168;-65
2021/09/22 05:39:25;;;;;;;41.95;30.75;;;;;;;;;;2095916;28;20174;-66
2021/09/22 05:40:44;;;;;;;46.83;31.75;;;;;;;;;;2090261;28;20215;-65
2021/09/22 05:42:03;;;;;;;48.67;33.10;;;;;;;;;;2092860;28;20171;-67
2021/09/22 05:43:22;;;;;;;45.67;31.85;;;;;;;;;;2088746;28;20155;-68
2021/09/22 05:44:41;;;;;;;44.13;32.03;;;;;;;;;;2085598;28;20644;-66
2021/09/22 05:46:00;;;;;;;46.15;32.50;;;;;;;;;;2087227;28;20573;-66
2021/09/22 05:47:19;;;;;;;47.28;32.00;;;;;;;;;;2087507;28;20551;-66
2021/09/22 05:48:38;;;;;;;45.47;33.20;;;;;;;;;;2082993;28;20656;-67
2021/09/22 05:49:57;;;;;;;50.90;33.80;;;;;;;;;;2088737;28;20171;-66
2021/09/22 05:51:21;;;;;;;48.53;31.65;;;;;;;;;;2064950;28;20181;-67
2021/09/22 05:52:40;;;;;;;49.83;33.53;;;;;;;;;;2087851;28;20175;-66
2021/09/22 05:53:59;;;;;;;47.13;32.50;;;;;;;;;;2085275;28;20187;-65
2021/09/22 05:55:17;;;;;;;46.58;32.85;;;;;;;;;;2088533;28;20549;-66
2021/09/22 05:56:36;;;;;;;51.15;34.03;;;;;;;;;;2087577;28;20191;-66
2021/09/22 05:57:55;;;;;;;46.95;32.83;;;;;;;;;;2085974;28;20939;-69
2021/09/22 05:59:14;;;;;;;49.38;33.50;;;;;;;;;;2083202;28;20164;-66
2021/09/22 06:00:33;;;;;;;49.67;33.20;;;;;;;;;;2089435;28;20187;-66
2021/09/22 06:01:59;;;;;;;48.33;33.83;;;;;;;;;;2071549;28;20177;-63
2021/09/22 06:03:20;;;;;;;47.40;31.77;;;;;;;;;;2091049;28;20167;-62
2021/09/22 06:04:38;;;;;;;46.20;33.53;;;;;;;;;;2088927;28;20179;-62
2021/09/22 06:05:59;;;;;;;48.53;33.85;;;;;;;;;;2094894;28;20259;-62
2021/09/22 06:07:12;;;;;;;53.95;33.47;;;;;;;;;;2080866;28;20691;-62
2021/09/22 06:08:44;;;;;;;49.35;32.67;;;;;;;;;;2054086;28;20174;-62
2021/09/22 06:09:52;;;;;;;47.63;33.75;;;;;;;;;;2078647;28;20207;-61
2021/09/22 06:11:02;;;;;;;53.45;33.58;;;;;;;;;;2080492;28;20206;-60
2021/09/22 06:12:22;;;;;;;46.95;33.33;;;;;;;;;;2087059;28;20151;-63
2021/09/22 06:13:22;;;;;;;49.30;35.22;;;;;;;;;;2082548;28;20303;-61
2021/09/22 06:14:25;;;;;;;48.63;34.03;;;;;;;;;;2084430;28;20218;-62
2021/09/22 06:15:26;;;;;;;49.95;32.45;;;;;;;;;;2081915;28;20172;-61
2021/09/22 06:16:30;;;;;;;45.90;32.97;;;;;;;;;;2065513;28;20733;-62
2021/09/22 06:17:40;;;;;;;50.80;33.28;;;;;;;;;;2066758;28;20193;-61
2021/09/22 06:18:43;;;;;;;48.33;33.65;;;;;;;;;;2077690;28;20204;-62
2021/09/22 06:19:47;;;;;;;50.47;34.53;;;;;;;;;;2079933;28;20184;-62
2021/09/22 06:20:53;;;;;;;49.63;34.75;;;;;;;;;;2076899;28;20177;-61
2021/09/22 06:21:55;;;;;;;49.78;33.55;;;;;;;;;;2086608;28;20204;-62
2021/09/22 06:22:57;;;;;;;55.17;36.60;;;;;;;;;;2085336;28;20175;-62
2021/09/22 06:23:59;;;;;;;50.10;33.70;;;;;;;;;;2080678;28;20167;-63
2021/09/22 06:25:05;;;;;;;55.35;36.42;;;;;;;;;;2073477;28;20169;-65
2021/09/22 06:26:07;;;;;;;53.55;35.58;;;;;;;;;;2072894;28;20358;-66